Time;durP1;ratioP1;P1;durP2;ratioP2;P2;SDS_P1;SDS_P2;PMS_P1;PMS_P2;Temp;Humidity;BMP_temperature;BMP_pressure;BME280_temperature;BME280_humidity;BME280_pressure;Samples;Min_cycle;Max_cycle;Signal;HPM_P1;HPM_P2
2021/08/16 00:01:43;;;;;;;10.73;7.33;;;;;;;21.42;75.37;96260.56;128030;1093;24390;-84
2021/08/16 00:04:14;;;;;;;10.70;7.78;;;;;;;21.37;75.24;96254.66;128086;1092;24726;-84
2021/08/16 00:06:45;;;;;;;10.75;7.58;;;;;;;21.34;75.44;96261.55;127849;1093;27895;-82
2021/08/16 00:09:17;;;;;;;9.28;7.35;;;;;;;21.34;75.34;96259.63;127947;1093;25768;-83
2021/08/16 00:11:48;;;;;;;12.20;7.93;;;;;;;21.28;75.47;96258.36;128019;1093;26395;-84
2021/08/16 00:14:19;;;;;;;13.60;8.33;;;;;;;21.26;75.27;96257.16;127918;1093;26431;-83
2021/08/16 00:16:50;;;;;;;11.48;8.35;;;;;;;21.27;75.65;96251.41;127966;1093;33020;-83
2021/08/16 00:19:22;;;;;;;13.75;7.78;;;;;;;21.30;75.51;96253.39;127979;1093;27884;-83
2021/08/16 00:21:53;;;;;;;11.40;7.83;;;;;;;21.33;75.74;96258.06;127990;1092;27887;-83
2021/08/16 00:24:26;;;;;;;10.80;7.67;;;;;;;21.36;75.53;96250.40;127982;1093;23544;-83
2021/08/16 00:26:57;;;;;;;12.55;7.55;;;;;;;21.34;75.66;96254.23;127615;1093;27989;-83
2021/08/16 00:29:28;;;;;;;10.98;7.50;;;;;;;21.29;75.37;96246.44;127897;1093;28032;-83
2021/08/16 00:32:00;;;;;;;9.95;7.20;;;;;;;21.29;75.10;96242.97;127625;1092;27967;-83
2021/08/16 00:34:31;;;;;;;11.00;7.23;;;;;;;21.20;74.90;96243.14;127926;1093;25725;-83
2021/08/16 00:37:02;;;;;;;15.80;8.05;;;;;;;21.13;75.02;96242.23;127927;1093;26421;-84
2021/08/16 00:39:34;;;;;;;11.45;7.58;;;;;;;21.07;75.26;96255.20;128069;1092;40001;-83
2021/08/16 00:42:09;;;;;;;12.28;7.50;;;;;;;21.08;75.59;96255.98;128008;1093;28384;-84
2021/08/16 00:44:41;;;;;;;11.00;7.50;;;;;;;21.04;76.10;96256.69;128068;1093;27091;-83
2021/08/16 00:47:14;;;;;;;13.10;8.08;;;;;;;20.96;76.49;96263.06;128074;1093;27162;-84
2021/08/16 00:49:45;;;;;;;11.30;7.70;;;;;;;20.95;76.83;96260.72;127923;1092;32717;-82
2021/08/16 00:52:17;;;;;;;13.15;9.15;;;;;;;20.89;77.92;96256.75;127968;1093;26240;-83
2021/08/16 00:54:48;;;;;;;12.30;8.55;;;;;;;20.83;78.31;96258.15;127951;1093;36536;-83
2021/08/16 00:57:20;;;;;;;11.70;8.45;;;;;;;20.82;78.25;96253.89;128020;1093;27891;-83
2021/08/16 00:59:51;;;;;;;9.63;8.20;;;;;;;20.86;78.32;96250.16;127874;1092;23580;-83
2021/08/16 01:02:23;;;;;;;13.23;8.20;;;;;;;20.95;78.00;96241.86;127998;1093;38778;-83
2021/08/16 01:04:54;;;;;;;9.97;8.13;;;;;;;20.94;77.89;96243.77;127933;1093;29823;-85
2021/08/16 01:07:25;;;;;;;12.18;8.45;;;;;;;20.91;77.98;96236.40;127871;1093;27323;-84
2021/08/16 01:09:57;;;;;;;10.53;8.23;;;;;;;20.84;77.93;96232.80;128012;1093;24525;-83
2021/08/16 01:12:29;;;;;;;11.68;7.90;;;;;;;20.81;78.14;96230.78;127942;1092;25397;-83
2021/08/16 01:15:02;;;;;;;11.83;8.03;;;;;;;20.73;78.13;96224.48;127932;1092;29105;-83
2021/08/16 01:17:35;;;;;;;9.98;7.68;;;;;;;20.66;78.02;96221.63;128026;1092;27876;-84
2021/08/16 01:20:09;;;;;;;10.10;7.18;;;;;;;20.62;78.23;96213.47;127963;1093;25540;-84
2021/08/16 01:22:40;;;;;;;10.78;6.63;;;;;;;20.58;78.14;96215.31;127999;1093;28026;-84
2021/08/16 01:25:13;;;;;;;11.58;6.88;;;;;;;20.49;78.31;96220.11;127793;1092;39972;-83
2021/08/16 01:27:44;;;;;;;10.23;7.18;;;;;;;20.41;78.27;96218.38;128024;1093;25861;-83
2021/08/16 01:30:18;;;;;;;12.88;7.48;;;;;;;20.36;78.16;96218.63;127647;1093;23490;-82
2021/08/16 01:32:50;;;;;;;8.00;6.17;;;;;;;20.37;78.20;96206.72;127907;1093;25006;-83
2021/08/16 01:35:23;;;;;;;9.08;7.33;;;;;;;20.42;78.31;96212.66;127903;1093;33319;-84
2021/08/16 01:37:55;;;;;;;8.93;7.40;;;;;;;20.53;78.11;96209.41;127996;1093;24978;-84
2021/08/16 01:40:26;;;;;;;9.43;6.73;;;;;;;20.59;78.25;96206.10;127942;1093;28014;-84
2021/08/16 01:42:57;;;;;;;8.43;6.73;;;;;;;20.59;78.03;96208.80;127944;1092;29505;-84
2021/08/16 01:45:30;;;;;;;10.63;7.33;;;;;;;20.55;77.83;96212.52;127749;1093;25929;-84
2021/08/16 01:48:01;;;;;;;9.80;7.20;;;;;;;20.55;77.87;96209.83;127659;1093;29851;-84
2021/08/16 01:50:33;;;;;;;12.40;7.33;;;;;;;20.53;77.94;96207.49;127596;1092;27669;-84
2021/08/16 01:53:04;;;;;;;7.90;6.90;;;;;;;20.49;77.80;96209.34;127961;1093;26827;-84
2021/08/16 01:55:35;;;;;;;10.25;7.08;;;;;;;20.45;77.74;96201.19;127936;1093;27162;-83
2021/08/16 01:58:08;;;;;;;11.43;7.23;;;;;;;20.40;78.14;96209.48;127989;1093;26278;-84
2021/08/16 02:00:40;;;;;;;9.85;7.15;;;;;;;20.35;78.09;96208.99;127947;1093;29499;-84
2021/08/16 02:03:11;;;;;;;12.23;7.03;;;;;;;20.28;77.88;96204.24;128031;1093;27260;-84
2021/08/16 02:05:42;;;;;;;11.38;7.43;;;;;;;20.22;78.13;96196.77;128051;1093;24177;-84
2021/08/16 02:08:14;;;;;;;10.68;7.53;;;;;;;20.20;78.37;96190.95;127867;1093;70176;-84
2021/08/16 02:10:45;;;;;;;7.63;6.40;;;;;;;20.21;78.33;96189.83;127869;1093;54456;-84
2021/08/16 02:13:16;;;;;;;10.15;7.58;;;;;;;20.19;78.29;96189.41;127865;1093;30675;-83
2021/08/16 02:15:47;;;;;;;8.53;6.58;;;;;;;20.19;78.40;96184.80;128065;1092;26585;-82
2021/08/16 02:18:19;;;;;;;11.60;6.23;;;;;;;20.23;77.94;96177.58;127636;1093;26855;-83
2021/08/16 02:20:50;;;;;;;9.55;6.55;;;;;;;20.28;78.27;96171.16;127629;1092;29243;-82
2021/08/16 02:23:21;;;;;;;10.25;6.28;;;;;;;20.26;77.99;96181.47;127628;1093;27929;-84
2021/08/16 02:25:53;;;;;;;9.20;6.58;;;;;;;20.25;77.88;96177.22;127603;1093;23535;-83
2021/08/16 02:28:24;;;;;;;10.75;7.30;;;;;;;20.14;77.62;96177.78;127645;1093;29110;-83
2021/08/16 02:30:55;;;;;;;9.28;7.00;;;;;;;19.96;78.08;96167.72;127862;1093;26286;-84
2021/08/16 02:33:27;;;;;;;10.98;6.93;;;;;;;19.90;78.36;96167.22;127949;1093;31667;-84
2021/08/16 02:35:58;;;;;;;10.20;7.50;;;;;;;19.93;78.48;96163.05;127972;1093;27490;-84
2021/08/16 02:38:29;;;;;;;8.53;6.53;;;;;;;19.98;78.53;96163.55;127959;1093;36052;-84
2021/08/16 02:41:00;;;;;;;10.00;6.60;;;;;;;19.99;78.31;96153.59;127983;1093;26474;-84
2021/08/16 02:43:32;;;;;;;11.28;7.48;;;;;;;19.97;78.77;96150.45;127971;1093;25573;-84
2021/08/16 02:46:03;;;;;;;11.35;7.63;;;;;;;20.02;79.34;96142.91;127823;1093;25838;-84
2021/08/16 02:48:34;;;;;;;10.98;7.70;;;;;;;20.01;79.37;96135.96;127594;1093;26410;-83
2021/08/16 02:51:06;;;;;;;10.15;6.98;;;;;;;20.04;79.33;96137.17;127605;1093;25903;-83
2021/08/16 02:53:37;;;;;;;10.65;7.13;;;;;;;20.04;79.50;96129.88;127585;1093;25143;-83
2021/08/16 02:56:08;;;;;;;10.05;7.18;;;;;;;20.04;79.82;96140.64;127992;1093;26274;-84
2021/08/16 02:58:39;;;;;;;12.08;7.30;;;;;;;20.05;79.75;96126.05;127956;1093;27729;-84
2021/08/16 03:01:11;;;;;;;9.15;7.33;;;;;;;20.06;79.56;96132.99;128000;1093;28535;-83
2021/08/16 03:03:42;;;;;;;9.28;7.33;;;;;;;20.04;79.47;96129.88;128010;1093;26038;-83
2021/08/16 03:06:14;;;;;;;10.55;7.00;;;;;;;20.00;79.86;96130.94;128003;1093;25776;-83
2021/08/16 03:08:45;;;;;;;11.88;8.10;;;;;;;19.96;79.64;96132.74;128034;1093;28915;-82
2021/08/16 03:11:19;;;;;;;13.13;7.93;;;;;;;19.94;79.69;96135.78;127901;1093;24316;-83
2021/08/16 03:13:50;;;;;;;10.43;7.93;;;;;;;19.93;79.97;96136.92;127990;1093;24915;-82
2021/08/16 03:16:21;;;;;;;10.63;7.53;;;;;;;19.90;80.24;96132.24;128020;1093;24144;-83
2021/08/16 03:18:53;;;;;;;12.05;7.63;;;;;;;19.89;80.36;96144.13;127770;1093;26037;-83
2021/08/16 03:21:24;;;;;;;13.08;8.20;;;;;;;19.94;80.43;96129.63;127956;1093;25864;-84
2021/08/16 03:23:55;;;;;;;11.53;7.60;;;;;;;19.97;80.36;96136.99;127991;1093;28031;-83
2021/08/16 03:26:27;;;;;;;10.58;8.03;;;;;;;19.96;80.52;96127.36;127977;1092;39500;-83
2021/08/16 03:28:58;;;;;;;10.55;7.53;;;;;;;19.90;80.73;96118.80;127987;1092;35752;-83
2021/08/16 03:31:29;;;;;;;13.05;7.80;;;;;;;19.87;80.76;96124.88;128012;1093;23121;-83
2021/08/16 03:34:00;;;;;;;9.55;7.03;;;;;;;19.87;80.33;96119.50;127977;1093;25032;-83
2021/08/16 03:36:33;;;;;;;11.85;7.40;;;;;;;19.88;80.43;96121.05;128067;1093;27872;-83
2021/08/16 03:39:04;;;;;;;11.03;7.65;;;;;;;19.88;80.57;96118.36;127563;1093;26769;-84
2021/08/16 03:41:36;;;;;;;10.60;7.85;;;;;;;19.88;80.55;96121.05;127653;1093;26303;-83
2021/08/16 03:44:07;;;;;;;12.20;7.37;;;;;;;19.91;80.53;96120.34;127967;1093;24161;-84
2021/08/16 03:46:38;;;;;;;10.85;7.73;;;;;;;19.94;80.37;96118.86;127571;1093;24211;-83
2021/08/16 03:49:10;;;;;;;11.48;8.55;;;;;;;19.96;80.19;96109.30;127922;1093;25215;-83
2021/08/16 03:51:41;;;;;;;12.08;7.63;;;;;;;19.99;80.02;96105.16;127614;1093;26517;-83
2021/08/16 03:54:12;;;;;;;11.90;7.93;;;;;;;20.02;79.71;96104.45;127616;1093;25483;-83
2021/08/16 03:56:44;;;;;;;8.28;6.98;;;;;;;20.05;79.89;96099.14;127665;1093;27622;-83
2021/08/16 03:59:15;;;;;;;11.43;6.98;;;;;;;20.10;79.59;96090.78;127670;1093;24154;-84
2021/08/16 04:01:46;;;;;;;8.53;6.87;;;;;;;20.16;79.46;96089.39;127602;1093;30118;-82
2021/08/16 04:04:18;;;;;;;9.85;7.10;;;;;;;20.25;79.32;96091.08;127576;1091;23752;-83
2021/08/16 04:06:49;;;;;;;10.33;6.95;;;;;;;20.33;79.02;96087.42;127672;1093;23508;-82
2021/08/16 04:09:21;;;;;;;11.58;6.73;;;;;;;20.37;78.62;96080.19;127609;1093;23381;-83
2021/08/16 04:11:52;;;;;;;9.93;7.40;;;;;;;20.44;78.48;96066.91;127607;1093;22835;-83
2021/08/16 04:14:24;;;;;;;9.73;6.83;;;;;;;20.52;78.10;96073.20;127601;1093;24007;-84
2021/08/16 04:16:55;;;;;;;9.40;6.85;;;;;;;20.58;78.03;96071.80;127577;1093;25243;-83
2021/08/16 04:19:26;;;;;;;9.33;6.73;;;;;;;20.62;77.69;96068.03;127574;1092;29881;-83
2021/08/16 04:21:58;;;;;;;11.38;7.33;;;;;;;20.69;77.48;96070.88;127612;1093;25430;-83
2021/08/16 04:24:29;;;;;;;10.25;6.95;;;;;;;20.77;77.04;96073.68;127585;1093;25969;-83
2021/08/16 04:27:00;;;;;;;11.87;7.33;;;;;;;20.80;76.93;96067.58;127604;1093;22838;-84
2021/08/16 04:29:32;;;;;;;8.45;6.38;;;;;;;20.91;76.66;96073.94;127575;1093;64549;-83
2021/08/16 04:32:03;;;;;;;12.63;6.88;;;;;;;21.01;76.38;96071.45;127629;1093;22914;-83
2021/08/16 04:34:43;;;;;;;8.70;6.87;;;;;;;21.20;75.71;96065.21;127663;1093;22883;-84
2021/08/16 04:37:14;;;;;;;7.95;6.43;;;;;;;21.96;75.44;96072.55;127656;1093;24837;-83
2021/08/16 04:39:45;;;;;;;8.63;7.00;;;;;;;22.94;74.63;96071.48;127689;1093;24988;-83
2021/08/16 04:42:16;;;;;;;9.00;7.00;;;;;;;23.96;72.40;96070.80;127585;1093;23692;-81
2021/08/16 04:44:48;;;;;;;9.03;6.80;;;;;;;24.83;69.71;96068.88;127554;1092;25389;-83
2021/08/16 04:47:19;;;;;;;7.47;6.30;;;;;;;25.49;67.20;96076.76;127574;1093;26290;-84
2021/08/16 04:49:51;;;;;;;8.08;6.20;;;;;;;26.21;66.36;96066.59;127659;1093;23386;-83
2021/08/16 04:52:22;;;;;;;8.40;6.03;;;;;;;26.95;63.60;96057.34;127543;1093;59283;-84
2021/08/16 04:54:54;;;;;;;10.18;6.15;;;;;;;27.20;61.76;96049.05;127641;1093;27390;-85
2021/08/16 04:57:36;;;;;;;8.33;5.98;;;;;;;27.20;59.49;96049.83;127549;1093;32774;-83
2021/08/16 05:00:10;;;;;;;7.95;6.28;;;;;;;26.60;58.89;96056.38;127615;1093;26809;-84
2021/08/16 05:02:43;;;;;;;9.18;6.20;;;;;;;26.82;59.25;96051.59;127725;1092;26245;-84
2021/08/16 05:05:14;;;;;;;9.38;5.95;;;;;;;27.21;58.83;96051.38;127717;1091;26560;-82
2021/08/16 05:07:56;;;;;;;6.90;5.63;;;;;;;27.63;57.71;96071.27;127635;1093;28450;-84
2021/08/16 05:10:29;;;;;;;7.25;5.73;;;;;;;27.82;56.86;96061.78;127581;1093;23860;-84
2021/08/16 05:13:02;;;;;;;9.00;6.13;;;;;;;27.51;56.60;96060.87;127589;1093;23300;-85
2021/08/16 05:15:33;;;;;;;9.18;5.80;;;;;;;26.37;56.78;96071.62;127617;1093;25332;-83
2021/08/16 05:18:05;;;;;;;8.55;5.90;;;;;;;25.31;58.25;96070.52;127658;1093;25787;-83
2021/08/16 05:20:37;;;;;;;8.18;5.78;;;;;;;25.67;59.60;96069.38;127593;1092;31726;-83
2021/08/16 05:23:08;;;;;;;8.85;6.20;;;;;;;26.84;58.42;96071.00;127588;1092;25465;-83
2021/08/16 05:25:40;;;;;;;9.33;6.00;;;;;;;27.63;57.44;96068.55;127537;1093;27350;-83
2021/08/16 05:28:14;;;;;;;7.93;5.58;;;;;;;28.29;56.58;96073.80;127660;1093;26597;-84
2021/08/16 05:30:45;;;;;;;7.78;5.85;;;;;;;28.67;54.83;96071.77;127619;1093;30853;-84
2021/08/16 05:33:16;;;;;;;6.98;5.53;;;;;;;28.80;53.69;96071.23;127570;1093;54577;-82
2021/08/16 05:35:47;;;;;;;7.95;6.20;;;;;;;29.24;53.42;96059.31;127595;1092;24873;-83
2021/08/16 05:38:19;;;;;;;7.85;5.88;;;;;;;29.78;52.42;96067.45;127535;1093;26276;-84
2021/08/16 05:40:50;;;;;;;7.60;5.68;;;;;;;30.11;50.06;96071.95;127603;1092;28076;-83
2021/08/16 05:43:22;;;;;;;7.63;5.47;;;;;;;29.92;49.78;96063.70;127576;1093;24142;-84
2021/08/16 05:45:53;;;;;;;10.13;6.23;;;;;;;29.83;49.70;96075.16;127566;1092;24933;-84
2021/08/16 05:48:25;;;;;;;8.08;6.00;;;;;;;30.19;50.25;96088.23;127625;1092;28302;-83
2021/08/16 05:50:56;;;;;;;7.53;5.30;;;;;;;30.68;49.11;96091.98;127601;1093;29296;-84
2021/08/16 05:53:27;;;;;;;8.98;5.45;;;;;;;30.80;48.44;96101.52;127584;1093;31016;-85
2021/08/16 05:55:59;;;;;;;8.63;5.73;;;;;;;30.64;46.93;96099.50;127588;1093;28110;-84
2021/08/16 05:58:30;;;;;;;10.13;5.37;;;;;;;30.52;47.43;96102.84;127587;1091;24539;-83
2021/08/16 06:01:02;;;;;;;6.48;5.15;;;;;;;31.17;46.84;96117.55;127581;1093;33797;-85
2021/08/16 06:03:34;;;;;;;6.55;5.05;;;;;;;31.99;45.38;96109.41;127585;1093;26481;-84
2021/08/16 06:06:05;;;;;;;9.28;5.00;;;;;;;32.99;44.86;96123.98;127547;1093;29169;-85
2021/08/16 06:08:37;;;;;;;6.05;4.78;;;;;;;33.30;43.15;96114.00;127555;1093;24621;-83
2021/08/16 06:11:08;;;;;;;5.78;4.88;;;;;;;33.45;42.28;96110.84;127557;1093;25783;-84
2021/08/16 06:13:39;;;;;;;5.90;5.03;;;;;;;33.27;41.44;96114.89;127569;1093;48010;-83
2021/08/16 06:16:11;;;;;;;5.33;4.33;;;;;;;32.81;41.52;96113.52;127650;1093;33415;-83
2021/08/16 06:18:42;;;;;;;8.95;5.20;;;;;;;32.05;42.43;96113.16;127613;1093;28947;-84
2021/08/16 06:21:14;;;;;;;5.65;5.05;;;;;;;31.23;42.39;96123.30;127671;1093;25428;-83
2021/08/16 06:23:45;;;;;;;8.65;5.18;;;;;;;30.68;43.89;96124.82;127709;1092;22960;-83
2021/08/16 06:26:17;;;;;;;6.90;5.50;;;;;;;30.08;44.41;96122.00;127590;1093;26526;-82
2021/08/16 06:28:49;;;;;;;6.93;5.13;;;;;;;30.45;45.70;96133.85;127542;1093;27391;-83
2021/08/16 06:31:20;;;;;;;6.90;4.35;;;;;;;32.26;44.68;96123.59;127546;1093;30350;-83
2021/08/16 06:33:52;;;;;;;6.85;4.78;;;;;;;33.06;42.60;96130.02;127626;1093;29636;-84
2021/08/16 06:36:23;;;;;;;9.90;5.45;;;;;;;32.91;41.93;96130.88;127586;1093;31117;-83
2021/08/16 06:38:55;;;;;;;8.98;5.53;;;;;;;32.88;41.92;96132.52;127569;1093;27563;-84
2021/08/16 06:41:26;;;;;;;6.03;5.30;;;;;;;33.20;40.75;96133.55;127676;1093;23749;-83
2021/08/16 06:43:58;;;;;;;7.33;5.38;;;;;;;33.17;41.05;96135.20;127543;1091;31825;-84
2021/08/16 06:46:30;;;;;;;6.75;5.33;;;;;;;33.70;40.04;96137.55;127581;1093;26519;-83
2021/08/16 06:49:01;;;;;;;6.48;5.30;;;;;;;34.14;40.28;96141.99;127598;1093;23014;-84
2021/08/16 06:51:32;;;;;;;5.85;4.88;;;;;;;35.31;39.85;96145.30;127649;1092;32225;-84
2021/08/16 06:54:04;;;;;;;6.85;4.75;;;;;;;36.06;37.57;96145.16;127754;1093;24373;-84
2021/08/16 06:56:36;;;;;;;6.35;4.88;;;;;;;36.72;37.51;96148.25;127597;1093;27674;-83
2021/08/16 06:59:07;;;;;;;7.20;4.50;;;;;;;36.57;34.39;96152.87;127637;1093;23286;-84
2021/08/16 07:01:38;;;;;;;6.55;4.60;;;;;;;36.13;36.01;96153.13;127607;1093;28854;-84
2021/08/16 07:04:10;;;;;;;5.30;4.35;;;;;;;36.52;35.80;96154.26;127724;1092;26710;-84
2021/08/16 07:06:41;;;;;;;5.25;4.73;;;;;;;37.29;34.72;96150.48;127694;1092;40519;-83
2021/08/16 07:09:13;;;;;;;7.10;4.83;;;;;;;37.88;33.00;96148.13;127679;1093;33088;-84
2021/08/16 07:11:45;;;;;;;5.33;4.73;;;;;;;37.92;33.26;96155.01;127632;1092;32100;-84
2021/08/16 07:14:17;;;;;;;7.67;5.00;;;;;;;38.01;32.46;96135.59;127584;1093;31778;-84
2021/08/16 07:16:48;;;;;;;7.58;4.40;;;;;;;38.56;30.49;96148.27;127723;1093;25836;-83
2021/08/16 07:19:20;;;;;;;5.88;4.33;;;;;;;38.84;31.32;96143.27;127613;1092;26642;-83
2021/08/16 07:21:51;;;;;;;5.40;4.70;;;;;;;39.17;31.21;96138.34;127634;1093;27619;-83
2021/08/16 07:24:23;;;;;;;5.70;4.13;;;;;;;39.64;29.87;96144.13;127627;1093;26600;-84
2021/08/16 07:26:54;;;;;;;4.20;3.80;;;;;;;40.07;29.71;96150.81;127585;1093;32388;-83
2021/08/16 07:29:29;;;;;;;7.78;4.05;;;;;;;39.98;29.53;96154.50;127600;1093;27417;-83
2021/08/16 07:32:01;;;;;;;5.98;4.00;;;;;;;39.81;27.50;96147.90;127709;1093;31199;-84
2021/08/16 07:34:34;;;;;;;6.28;4.20;;;;;;;39.29;27.47;96147.61;127716;1093;24237;-83
2021/08/16 07:37:08;;;;;;;5.40;4.07;;;;;;;38.97;28.35;96148.53;127591;1093;24362;-84
2021/08/16 07:39:40;;;;;;;6.58;3.70;;;;;;;39.22;28.39;96147.98;127694;1093;37298;-84
2021/08/16 07:42:11;;;;;;;5.58;3.95;;;;;;;39.22;29.15;96147.98;127721;1093;64892;-84
2021/08/16 07:44:43;;;;;;;6.43;4.38;;;;;;;38.73;29.15;96143.09;127703;1093;24983;-83
2021/08/16 07:47:14;;;;;;;6.70;4.10;;;;;;;38.98;30.53;96152.83;127680;1093;25836;-83
2021/08/16 07:49:45;;;;;;;5.97;4.40;;;;;;;39.52;28.75;96157.03;127683;1092;25932;-83
2021/08/16 07:52:17;;;;;;;10.50;4.20;;;;;;;39.72;28.70;96159.14;127592;1093;27137;-83
2021/08/16 07:54:48;;;;;;;5.73;4.05;;;;;;;40.32;30.41;96168.80;127620;1093;35224;-84
2021/08/16 07:57:19;;;;;;;5.43;4.03;;;;;;;41.18;28.90;96170.78;127620;1092;26027;-83
2021/08/16 07:59:51;;;;;;;5.38;3.95;;;;;;;41.38;28.24;96166.41;127586;1093;27418;-83
2021/08/16 08:02:22;;;;;;;5.83;3.75;;;;;;;41.49;27.99;96183.20;127619;1093;33601;-83
2021/08/16 08:04:54;;;;;;;7.15;4.28;;;;;;;41.93;28.66;96173.65;127635;1092;24385;-83
2021/08/16 08:07:25;;;;;;;6.63;4.43;;;;;;;42.01;28.15;96178.27;127642;1093;24820;-83
2021/08/16 08:09:56;;;;;;;7.20;4.33;;;;;;;40.50;26.71;96184.45;127632;1093;22812;-83
2021/08/16 08:12:28;;;;;;;5.03;4.13;;;;;;;38.30;28.52;96187.56;127606;1093;26067;-83
2021/08/16 08:14:59;;;;;;;6.90;4.55;;;;;;;36.82;29.30;96190.48;127616;1093;27711;-84
2021/08/16 08:17:31;;;;;;;6.85;4.30;;;;;;;35.72;30.61;96187.48;127613;1092;23688;-83
2021/08/16 08:20:03;;;;;;;6.85;4.88;;;;;;;35.83;31.15;96189.81;127621;1093;27169;-84
2021/08/16 08:22:36;;;;;;;7.60;4.68;;;;;;;34.79;31.70;96182.64;127606;1093;23918;-84
2021/08/16 08:25:09;;;;;;;5.40;4.65;;;;;;;34.43;32.90;96188.61;127768;1092;31628;-83
2021/08/16 08:27:47;;;;;;;9.25;5.23;;;;;;;33.83;33.26;96196.05;127753;1093;30395;-84
2021/08/16 08:30:19;;;;;;;5.90;4.27;;;;;;;33.29;34.53;96183.13;127663;1093;23320;-84
2021/08/16 08:32:54;;;;;;;7.60;4.70;;;;;;;32.25;34.83;96192.61;127610;1093;24504;-82
2021/08/16 08:35:26;;;;;;;7.23;5.60;;;;;;;31.22;36.29;96195.71;127642;1093;25986;-83
2021/08/16 08:37:57;;;;;;;8.43;5.27;;;;;;;30.92;38.42;96193.95;127666;1092;31669;-84
2021/08/16 08:40:29;;;;;;;8.10;5.03;;;;;;;31.10;38.05;96191.62;127629;1093;26790;-84
2021/08/16 08:43:00;;;;;;;6.50;4.85;;;;;;;31.49;38.95;96201.78;127622;1093;24476;-84
2021/08/16 08:45:31;;;;;;;8.63;4.83;;;;;;;31.78;37.84;96203.91;127626;1093;27572;-83
2021/08/16 08:48:03;;;;;;;8.40;4.95;;;;;;;32.13;39.05;96188.58;127614;1093;28917;-83
2021/08/16 08:50:35;;;;;;;9.28;4.80;;;;;;;32.42;37.92;96192.17;127614;1092;46148;-83
2021/08/16 08:53:07;;;;;;;6.73;4.48;;;;;;;32.64;38.07;96180.62;127579;1093;50083;-85
2021/08/16 08:55:38;;;;;;;5.83;4.50;;;;;;;32.72;37.75;96176.48;127609;1093;36051;-84
2021/08/16 08:58:12;;;;;;;6.73;4.30;;;;;;;32.61;37.37;96176.00;127628;1092;24316;-84
2021/08/16 09:00:44;;;;;;;5.85;4.25;;;;;;;32.19;36.66;96182.14;127683;1092;25742;-84
2021/08/16 09:03:16;;;;;;;6.40;4.30;;;;;;;31.80;37.17;96174.86;127645;1091;56618;-84
2021/08/16 09:05:53;;;;;;;5.33;4.25;;;;;;;31.47;37.35;96170.53;127656;1093;25422;-83
2021/08/16 09:08:27;;;;;;;5.88;4.03;;;;;;;30.98;37.84;96170.38;127614;1093;23587;-84
2021/08/16 09:11:14;;;;;;;9.40;4.45;;;;;;;30.48;39.21;96176.00;127714;1093;24559;-84
2021/08/16 09:13:58;;;;;;;6.35;4.18;;;;;;;30.50;40.41;96173.62;127663;1093;31692;-84
2021/08/16 09:16:32;;;;;;;6.98;4.88;;;;;;;30.38;40.82;96175.00;127632;1093;26076;-84
2021/08/16 09:19:14;;;;;;;6.08;4.43;;;;;;;30.18;40.35;96174.20;127630;1093;26760;-83
2021/08/16 09:21:53;;;;;;;7.48;4.98;;;;;;;29.82;40.56;96161.07;127699;1092;24550;-83
2021/08/16 09:24:29;;;;;;;6.13;4.53;;;;;;;29.61;42.56;96167.66;127635;1092;25700;-83
2021/08/16 09:27:07;;;;;;;5.95;4.33;;;;;;;29.70;41.03;96169.84;127646;1093;25651;-83
2021/08/16 09:29:48;;;;;;;7.50;4.33;;;;;;;29.67;41.76;96170.68;127655;1093;24901;-83
2021/08/16 09:32:30;;;;;;;5.90;4.60;;;;;;;29.38;42.41;96168.33;127662;1093;26012;-85
2021/08/16 09:35:07;;;;;;;5.70;4.35;;;;;;;29.15;41.79;96158.13;127610;1093;23869;-84
2021/08/16 09:37:40;;;;;;;6.45;4.65;;;;;;;29.10;43.48;96157.80;127607;1092;26000;-84
2021/08/16 09:40:15;;;;;;;8.85;4.58;;;;;;;28.98;42.18;96159.89;127605;1093;25542;-83
2021/08/16 09:42:49;;;;;;;8.90;4.90;;;;;;;29.05;43.59;96158.27;127632;1093;26221;-82
2021/08/16 09:45:33;;;;;;;8.70;4.63;;;;;;;29.28;43.88;96158.36;127643;1093;23954;-83
2021/08/16 09:48:08;;;;;;;9.15;4.70;;;;;;;29.37;42.53;96155.87;127617;1093;32152;-83
2021/08/16 09:50:41;;;;;;;7.70;4.38;;;;;;;29.20;42.41;96146.74;127628;1092;37548;-84
2021/08/16 09:53:15;;;;;;;7.80;4.90;;;;;;;29.15;42.80;96149.94;127688;1093;32154;-83
2021/08/16 09:55:49;;;;;;;6.35;4.23;;;;;;;29.09;41.31;96150.80;128030;1093;26124;-82
2021/08/16 09:58:21;;;;;;;7.18;4.20;;;;;;;28.93;42.35;96145.94;127957;1093;23144;-82
2021/08/16 10:00:55;;;;;;;8.20;4.18;;;;;;;28.92;42.86;96147.89;127592;1093;33841;-83
2021/08/16 10:03:27;;;;;;;7.75;4.40;;;;;;;28.85;42.68;96147.94;127739;1093;26105;-85
2021/08/16 10:05:59;;;;;;;5.95;3.98;;;;;;;28.71;42.56;96147.33;127773;1092;25518;-83
2021/08/16 10:08:34;;;;;;;7.23;4.28;;;;;;;28.52;42.90;96145.99;127685;1093;27716;-83
2021/08/16 10:11:06;;;;;;;8.45;4.18;;;;;;;28.61;43.01;96135.38;127663;1093;23766;-83
2021/08/16 10:13:41;;;;;;;7.08;4.00;;;;;;;28.63;41.96;96135.74;127719;1092;24420;-83
2021/08/16 10:16:18;;;;;;;6.50;3.45;;;;;;;28.63;42.47;96135.74;127845;1093;26985;-83
2021/08/16 10:18:52;;;;;;;5.50;3.78;;;;;;;28.73;42.91;96134.08;127695;1093;24997;-82
2021/08/16 10:21:25;;;;;;;4.88;3.88;;;;;;;28.84;42.20;96127.28;127775;1093;26525;-82
2021/08/16 10:23:58;;;;;;;5.58;3.58;;;;;;;28.94;42.59;96117.45;127726;1093;28188;-83
2021/08/16 10:26:31;;;;;;;6.88;3.85;;;;;;;29.11;43.77;96126.59;127705;1093;32601;-84
2021/08/16 10:29:05;;;;;;;8.20;3.98;;;;;;;29.11;41.97;96124.63;127649;1092;26104;-84
2021/08/16 10:31:38;;;;;;;6.05;3.88;;;;;;;28.99;42.04;96114.27;127656;1093;27061;-84
2021/08/16 10:34:10;;;;;;;5.20;3.30;;;;;;;28.92;42.04;96111.64;127631;1093;25342;-84
2021/08/16 10:36:59;;;;;;;4.93;3.65;;;;;;;28.83;42.01;96112.09;113272;1103;5423581;-83
2021/08/16 10:39:40;;;;;;;6.13;3.20;;;;;;;28.80;41.19;96120.34;127017;1103;22992;-83
2021/08/16 10:42:13;;;;;;;5.70;3.63;;;;;;;28.88;42.68;96114.42;127663;1093;26787;-83
2021/08/16 10:44:48;;;;;;;6.35;3.80;;;;;;;28.88;41.72;96108.97;127665;1093;26371;-83
2021/08/16 10:47:28;;;;;;;5.25;3.93;;;;;;;28.78;41.83;96114.52;127645;1092;25604;-84
2021/08/16 10:50:09;;;;;;;6.53;3.88;;;;;;;28.69;42.49;96121.23;127636;1093;25310;-83
2021/08/16 10:52:43;;;;;;;6.35;3.65;;;;;;;28.52;42.19;96114.04;127638;1092;30015;-83
2021/08/16 10:55:16;;;;;;;5.93;3.55;;;;;;;28.42;41.90;96114.92;127684;1093;25102;-84
2021/08/16 10:57:48;;;;;;;8.15;3.78;;;;;;;28.58;42.87;96111.66;127615;1093;24422;-82
2021/08/16 11:00:21;;;;;;;5.10;3.73;;;;;;;28.76;43.12;96114.16;127603;1093;24370;-82
2021/08/16 11:02:57;;;;;;;5.68;3.85;;;;;;;29.01;42.88;96111.15;127613;1093;26735;-83
2021/08/16 11:05:34;;;;;;;5.95;3.30;;;;;;;29.07;43.12;96115.72;127615;1093;26572;-83
2021/08/16 11:08:07;;;;;;;5.80;3.60;;;;;;;29.13;42.13;96102.38;127598;1093;30021;-83
2021/08/16 11:10:44;;;;;;;6.93;3.80;;;;;;;29.04;41.43;96113.05;127634;1093;26512;-83
2021/08/16 11:13:22;;;;;;;6.10;3.18;;;;;;;29.00;41.74;96106.84;127800;1092;25101;-83
2021/08/16 11:15:53;;;;;;;4.73;3.05;;;;;;;29.03;40.73;96109.55;127605;1093;41888;-83
2021/08/16 11:18:26;;;;;;;7.78;4.03;;;;;;;29.04;41.24;96105.63;127625;1093;26184;-83
2021/08/16 11:21:02;;;;;;;4.90;3.63;;;;;;;29.10;42.60;96103.20;127632;1093;23727;-83
2021/08/16 11:23:33;;;;;;;5.53;4.00;;;;;;;29.07;42.09;96098.58;127693;1092;26271;-83
2021/08/16 11:26:05;;;;;;;5.45;3.75;;;;;;;29.21;42.53;96104.61;127803;1093;28097;-85
2021/08/16 11:28:37;;;;;;;5.33;3.78;;;;;;;29.28;42.51;96106.48;127802;1093;25458;-83
2021/08/16 11:31:10;;;;;;;5.78;3.80;;;;;;;29.31;42.18;96091.98;127780;1093;28029;-83
2021/08/16 11:33:41;;;;;;;9.53;3.80;;;;;;;29.37;42.74;96095.78;127756;1093;23561;-83
2021/08/16 11:36:15;;;;;;;5.03;3.73;;;;;;;29.44;43.41;96095.70;127916;1091;25457;-83
2021/08/16 11:38:54;;;;;;;6.73;3.73;;;;;;;29.43;40.84;96101.58;127738;1093;30657;-83
2021/08/16 11:41:32;;;;;;;5.50;3.50;;;;;;;29.24;41.79;96111.19;127869;1093;27830;-84
2021/08/16 11:44:15;;;;;;;6.03;3.35;;;;;;;29.16;41.63;96110.54;127698;1093;26679;-83
2021/08/16 11:46:47;;;;;;;7.40;3.58;;;;;;;29.11;42.06;96104.75;127798;1093;27202;-81